Terminal Aerodrome Forecast
Issued by NWS Spokane, WA

Home | Current Version | Previous Version | Text Only | Print | Product List | Glossary On
Versions: 1 2 3 4 5 6 7 8 9 10 11 12 13 14 15 16 17 18 19 20 21 22 23 24 25 26 27 28 29 30 31 32
000
FTUS46 KOTX 152357 CCA
TAFGEG
TAF COR
KGEG 152357Z 1600/1624 23005KT 3/4SM -SHSN BR SCT005 OVC015
     FM160400 22005KT 2SM BR BKN007
     FM160700 22005KT 1/2SM FZFG OVC003
     FM161200 23004KT 1/4SM FZFG VV001
     FM161900 20003KT 1/2SM FZFG OVC003=

USA.gov is the U.S. government's official web portal to all federal, state and local government web resources and services.